CYQR

Regina International Airport

Airport
ICAO code
CYQR
Summary
ICAO Region
NAM
ICAO Territory
Location

Regina, Saskatchewan,

Coordinates
50° 25' 55" N , 104° 39' 57" W
KCC
Airport CFIT
Altimeter Temperature Error Correction
Airport GND
Aircraft Ground De/Anti Icing
Airport RE
Landing on Contaminated Runways
Airport WX
Cumulonimbus
Metar
Observation
CYQR 280300Z 19009KT 15SM BKN076 01/M02 A2926 RMK AC7 SLP934
Station
Regina, Sask.
Date/Time
2022-11-28 03:00:00
Wind direction
190°
Wind speed
09 kts
Lowest cloud amount
broken clouds
Temperature
1°C
Dew point
-2°C
Humidity
80%
Weather condition
n/a

Description

International airport serving Regina, Saskatchewan.

Climatology

Humid Continental climate (Köppen climate classification Dfb) - Variable weather patterns and a large seasonal temperature variance. Summers are often warm and humid with frequent thunderstorms and winters can be very cold with frequent snowfall and persistent snow cover.

Runways

Designator Length Width Surface Rops
8/26 1890 46 ASP Yes/Yes
13/31 2408 46 ASP Yes/Yes

Airport map

Aerial View

SKYbrary Partners:

Safety knowledge contributed by: